Florence, Oregon
Current Conditions -  °F | °C
As of 11:55 AM on Saturday 25 Oct 2014 (Local Time) from KOTH Reporting Station
Overcast Overcast  
Wind Chill: 63°   Ceiling: 2300
Heat Index: 63°   Visibility: 8mi
Dew Point: 57°   Wind: 28mph
Humidity: 82%   Direction: 210°SSW
Pressure: 29.45"   Gusts: 46mph
Location:  43.97°N, 124.1°W
Report Text: KOTH 251855Z 21024G40KT 8SM BKN023 OVC028 17/14 A2945 RMK AO1
Loading
Personal Weather Stations






























Interactive Weather Map New forecast layout! Learn more

10-Day Weather Forecast

Advertisements
Track Severe Weather on mobile